createdAt,value
2019-05-02T00:00:19.376Z,98730.80
2019-05-02T00:02:48.737Z,98725.25
2019-05-02T00:05:18.315Z,98728.05
2019-05-02T00:07:47.536Z,98734.08
2019-05-02T00:10:19.968Z,98727.38
2019-05-02T00:12:50.777Z,98735.52
2019-05-02T00:15:20.298Z,98726.06
2019-05-02T00:17:49.217Z,98725.35
2019-05-02T00:20:21.196Z,98729.86
2019-05-02T00:22:52.165Z,98721.41
2019-05-02T00:25:19.977Z,98724.88
2019-05-02T00:27:49.016Z,98721.50
2019-05-02T00:30:18.536Z,98725.26
2019-05-02T00:32:47.587Z,98720.86
2019-05-02T00:35:16.576Z,98717.75
2019-05-02T00:37:45.859Z,98723.13
2019-05-02T00:40:14.976Z,98714.77
2019-05-02T00:42:44.018Z,98717.48
2019-05-02T00:45:14.204Z,98709.59
2019-05-02T00:47:50.416Z,98710.91
2019-05-02T00:50:20.061Z,98711.92
2019-05-02T00:52:49.106Z,98710.20
2019-05-02T00:55:18.025Z,98712.44
2019-05-02T00:57:50.841Z,98697.98
2019-05-02T01:00:19.663Z,98699.48
2019-05-02T01:02:50.538Z,98702.73
2019-05-02T01:05:19.657Z,98696.77
2019-05-02T01:07:48.698Z,98693.34
2019-05-02T01:10:21.239Z,98693.34
2019-05-02T01:12:48.702Z,98689.05
2019-05-02T01:15:17.777Z,98697.37
2019-05-02T01:17:46.858Z,98690.89
2019-05-02T01:20:16.057Z,98690.57
2019-05-02T01:22:47.215Z,98694.14
2019-05-02T01:25:17.230Z,98693.75
2019-05-02T01:27:48.016Z,98696.39
2019-05-02T01:30:24.696Z,98697.34
2019-05-02T01:33:13.816Z,98697.34
2019-05-02T01:35:56.818Z,98699.29
2019-05-02T01:38:31.706Z,98700.61
2019-05-02T01:41:00.927Z,98699.35
2019-05-02T01:43:31.698Z,98698.44
2019-05-02T01:46:00.856Z,98693.47
2019-05-02T01:48:29.897Z,98693.78
2019-05-02T01:50:59.099Z,98692.39
2019-05-02T01:53:29.307Z,98694.88
2019-05-02T01:55:59.331Z,98691.56
2019-05-02T01:58:28.457Z,98687.67
2019-05-02T02:00:57.497Z,98690.69
2019-05-02T02:03:27.859Z,98689.22
2019-05-02T02:05:56.865Z,98690.86
2019-05-02T02:08:27.248Z,98692.70
2019-05-02T02:10:58.279Z,98694.42
2019-05-02T02:13:31.172Z,98691.47
2019-05-02T02:16:00.213Z,98687.12
2019-05-02T02:18:30.418Z,98690.54
2019-05-02T02:21:03.737Z,98693.35
2019-05-02T02:23:50.964Z,98687.98
2019-05-02T02:26:24.819Z,98686.83
2019-05-02T02:28:53.896Z,98683.49
2019-05-02T02:31:23.343Z,98682.15
2019-05-02T02:33:52.418Z,98682.84
2019-05-02T02:36:32.142Z,98681.47
2019-05-02T02:38:52.077Z,98682.97
2019-05-02T02:41:21.035Z,98680.49
2019-05-02T02:44:03.896Z,98679.38
2019-05-02T02:46:39.746Z,98670.70
2019-05-02T02:49:14.007Z,98660.67
2019-05-02T02:51:38.646Z,98666.44
2019-05-02T02:54:07.665Z,98666.11
2019-05-02T02:56:40.394Z,98661.02
2019-05-02T02:59:07.091Z,98658.53
2019-05-02T03:01:36.058Z,98665.99
2019-05-02T03:04:09.516Z,98662.19
2019-05-02T03:06:38.486Z,98652.56
2019-05-02T03:09:07.492Z,98661.27
2019-05-02T03:11:40.454Z,98658.30
2019-05-02T03:14:20.071Z,98659.80
2019-05-02T03:16:49.623Z,98673.98
2019-05-02T03:19:21.157Z,98667.38
2019-05-02T03:22:01.037Z,98667.56
2019-05-02T03:24:26.879Z,98662.28
2019-05-02T03:26:58.451Z,98662.36
2019-05-02T03:29:39.334Z,98667.84
2019-05-02T03:32:14.292Z,98657.76
2019-05-02T03:34:44.932Z,98662.58
2019-05-02T03:37:03.071Z,98670.41
2019-05-02T03:39:30.489Z,98669.88
2019-05-02T03:42:02.739Z,98671.58
2019-05-02T03:44:31.294Z,98666.92
2019-05-02T03:47:02.034Z,98669.79
2019-05-02T03:49:31.131Z,98660.47
2019-05-02T03:52:02.605Z,98658.97
2019-05-02T03:54:31.135Z,98668.95
2019-05-02T03:56:59.971Z,98658.13
2019-05-02T03:59:37.324Z,98667.67
2019-05-02T04:02:00.109Z,98662.58
2019-05-02T04:04:29.795Z,98665.97
2019-05-02T04:07:01.030Z,98666.36
2019-05-02T04:09:39.096Z,98672.05
2019-05-02T04:12:11.604Z,98671.39
2019-05-02T04:14:38.733Z,98674.68
2019-05-02T04:17:09.795Z,98671.72
2019-05-02T04:19:38.832Z,98670.58
2019-05-02T04:22:11.342Z,98664.59
2019-05-02T04:24:38.932Z,98665.52
2019-05-02T04:27:07.971Z,98666.83
2019-05-02T04:29:37.616Z,98662.64
2019-05-02T04:32:11.568Z,98661.59
2019-05-02T04:34:37.202Z,98652.89
2019-05-02T04:37:06.259Z,98655.98
2019-05-02T04:39:35.191Z,98655.41
2019-05-02T04:42:13.196Z,98656.06
2019-05-02T04:44:40.900Z,98654.97
2019-05-02T04:47:13.876Z,98655.66
2019-05-02T04:49:39.024Z,98657.94
2019-05-02T04:52:11.318Z,98649.31
2019-05-02T04:54:38.839Z,98650.45
2019-05-02T04:57:08.666Z,98652.92
2019-05-02T04:59:39.578Z,98649.38
2019-05-02T05:02:09.267Z,98656.02
2019-05-02T05:04:42.739Z,98649.91
2019-05-02T05:07:09.532Z,98656.08
2019-05-02T05:09:39.961Z,98660.08
2019-05-02T05:12:09.512Z,98657.56
2019-05-02T05:14:43.031Z,98662.39
2019-05-02T05:17:08.950Z,98652.59
2019-05-02T05:19:37.883Z,98652.22
2019-05-02T05:22:11.711Z,98654.48
2019-05-02T05:24:51.020Z,98658.66
2019-05-02T05:27:22.832Z,98655.27
2019-05-02T05:29:53.571Z,98653.73
2019-05-02T05:32:21.150Z,98655.43
2019-05-02T05:34:50.012Z,98657.64
2019-05-02T05:37:18.995Z,98655.73
2019-05-02T05:39:52.303Z,98658.56
2019-05-02T05:42:23.459Z,98656.68
2019-05-02T05:44:49.130Z,98650.63
2019-05-02T05:47:21.342Z,98649.09
2019-05-02T05:49:52.401Z,98649.36
2019-05-02T05:52:19.352Z,98650.25
2019-05-02T05:54:48.297Z,98646.47
2019-05-02T05:57:20.983Z,98653.08
2019-05-02T05:59:48.432Z,98642.69
2019-05-02T06:02:18.342Z,98640.57
2019-05-02T06:04:50.144Z,98641.79
2019-05-02T06:07:20.170Z,98638.52
2019-05-02T06:09:48.833Z,98637.48
2019-05-02T06:12:17.691Z,98642.20
2019-05-02T06:14:46.692Z,98641.80
2019-05-02T06:17:15.702Z,98627.52
2019-05-02T06:19:48.184Z,98628.97
2019-05-02T06:22:16.537Z,98627.55
2019-05-02T06:24:46.190Z,98630.07
2019-05-02T06:27:16.390Z,98630.52
2019-05-02T06:29:45.269Z,98624.47
2019-05-02T06:32:19.096Z,98626.10
2019-05-02T06:34:46.351Z,98621.59
2019-05-02T06:37:15.533Z,98619.61
2019-05-02T06:39:44.490Z,98637.16
2019-05-02T06:42:13.350Z,98622.11
2019-05-02T06:44:42.231Z,98628.98
2019-05-02T06:47:11.271Z,98638.66
2019-05-02T06:49:40.131Z,98623.67
2019-05-02T06:52:09.026Z,98623.38
2019-05-02T06:54:37.998Z,98613.45
2019-05-02T06:57:06.843Z,98620.86
2019-05-02T06:59:35.852Z,98616.45
2019-05-02T07:02:05.074Z,98606.05
2019-05-02T07:04:33.939Z,98603.09
2019-05-02T07:07:02.862Z,98600.95
2019-05-02T07:09:40.321Z,98592.67
2019-05-02T07:12:02.411Z,98599.45
2019-05-02T07:14:31.284Z,98592.19
2019-05-02T07:17:20.363Z,98596.09
2019-05-02T07:20:03.794Z,98596.22
2019-05-02T07:22:33.223Z,98599.23
2019-05-02T07:25:01.950Z,98598.75
2019-05-02T07:27:33.660Z,98582.33
2019-05-02T07:30:02.612Z,98587.91
2019-05-02T07:32:31.595Z,98586.81
2019-05-02T07:35:00.611Z,98585.38
2019-05-02T07:37:29.554Z,98583.75
2019-05-02T07:39:58.431Z,98581.77
2019-05-02T07:42:27.469Z,98581.05
2019-05-02T07:44:56.411Z,98579.58
2019-05-02T07:47:25.251Z,98559.38
2019-05-02T07:49:54.110Z,98568.72
2019-05-02T07:52:23.030Z,98572.12
2019-05-02T07:54:56.116Z,98574.41
2019-05-02T07:57:25.223Z,98595.96
2019-05-02T07:59:54.969Z,98580.70
2019-05-02T08:02:25.018Z,98574.16
2019-05-02T08:04:54.391Z,98566.65
2019-05-02T08:07:25.712Z,98584.21
2019-05-02T08:09:54.016Z,98580.73
2019-05-02T08:12:22.889Z,98563.38
2019-05-02T08:14:51.831Z,98567.16
2019-05-02T08:17:20.710Z,98560.53
2019-05-02T08:19:49.551Z,98567.16
2019-05-02T08:22:18.611Z,98553.39
2019-05-02T08:24:47.451Z,98588.59
2019-05-02T08:27:23.749Z,98567.23
2019-05-02T08:29:53.230Z,98568.67
2019-05-02T08:32:22.071Z,98575.28
2019-05-02T08:34:51.613Z,98566.00
2019-05-02T08:37:21.589Z,98568.45
2019-05-02T08:39:50.451Z,98566.51
2019-05-02T08:42:19.424Z,98565.26
2019-05-02T08:44:51.341Z,98556.45
2019-05-02T08:47:19.486Z,98560.18
2019-05-02T08:49:54.628Z,98575.20
2019-05-02T08:52:20.228Z,98559.69
2019-05-02T08:54:49.159Z,98559.05
2019-05-02T08:57:18.100Z,98558.98
2019-05-02T08:59:47.029Z,98567.05
2019-05-02T09:02:16.010Z,98551.76
2019-05-02T09:04:57.639Z,98563.05
2019-05-02T09:07:15.657Z,98554.95
2019-05-02T09:09:45.591Z,98552.65
2019-05-02T09:12:15.272Z,98556.28
2019-05-02T09:14:44.311Z,98543.53
2019-05-02T09:17:16.419Z,98545.66
2019-05-02T09:19:43.924Z,98551.33
2019-05-02T09:22:16.668Z,98556.69
2019-05-02T09:24:44.975Z,98554.70
2019-05-02T09:27:14.021Z,98546.61
2019-05-02T09:29:45.929Z,98558.56
2019-05-02T09:32:17.101Z,98551.35
2019-05-02T09:34:44.412Z,98551.78
2019-05-02T09:37:13.290Z,98549.27
2019-05-02T09:39:42.149Z,98543.52
2019-05-02T09:42:15.041Z,98538.59
2019-05-02T09:44:42.554Z,98540.48
2019-05-02T09:47:13.090Z,98549.91
2019-05-02T09:49:48.918Z,98539.88
2019-05-02T09:52:12.612Z,98527.55
2019-05-02T09:54:45.899Z,98538.76
2019-05-02T09:57:12.172Z,98551.85
2019-05-02T09:59:44.889Z,98537.90
2019-05-02T10:02:12.580Z,98536.91
2019-05-02T10:04:44.045Z,98522.69
2019-05-02T10:07:15.290Z,98528.02
2019-05-02T10:09:43.031Z,98520.73
2019-05-02T10:12:12.343Z,98517.61
2019-05-02T10:14:42.146Z,98512.37
2019-05-02T10:17:12.526Z,98518.08
2019-05-02T10:19:48.794Z,98510.88
2019-05-02T10:22:12.666Z,98508.97
2019-05-02T10:24:42.513Z,98503.16
2019-05-02T10:27:12.616Z,98504.92
2019-05-02T10:29:41.935Z,98503.08
2019-05-02T10:32:15.077Z,98501.44
2019-05-02T10:34:42.216Z,98504.40
2019-05-02T10:37:12.349Z,98500.73
2019-05-02T10:39:42.288Z,98501.73
2019-05-02T10:42:12.487Z,98503.28
2019-05-02T10:44:42.671Z,98499.45
2019-05-02T10:47:12.810Z,98493.77
2019-05-02T10:49:52.826Z,98485.88
2019-05-02T10:52:29.482Z,98490.31
2019-05-02T10:54:52.962Z,98473.01
2019-05-02T10:57:22.035Z,98473.16
2019-05-02T10:59:52.566Z,98485.16
2019-05-02T11:02:25.968Z,98470.81
2019-05-02T11:04:56.440Z,98476.75
2019-05-02T11:07:26.488Z,98488.93
2019-05-02T11:09:57.215Z,98471.65
2019-05-02T11:12:42.014Z,98471.48
2019-05-02T11:15:19.091Z,98473.61
2019-05-02T11:17:48.951Z,98471.83
2019-05-02T11:20:18.011Z,98479.09
2019-05-02T11:22:46.890Z,98473.65
2019-05-02T11:25:15.831Z,98477.06
2019-05-02T11:27:44.690Z,98473.16
2019-05-02T11:30:16.873Z,98485.02
2019-05-02T11:32:45.711Z,98484.17
2019-05-02T11:35:14.570Z,98474.80
2019-05-02T11:37:43.453Z,98468.36
2019-05-02T11:40:12.970Z,98470.16
2019-05-02T11:42:41.879Z,98469.70
2019-05-02T11:45:12.081Z,98462.53
2019-05-02T11:47:42.316Z,98461.34
2019-05-02T11:50:11.982Z,98454.42
2019-05-02T11:52:42.427Z,98463.59
2019-05-02T11:55:12.882Z,98463.31
2019-05-02T11:57:42.569Z,98466.36
2019-05-02T12:00:12.823Z,98465.17
2019-05-02T12:02:43.495Z,98462.39
2019-05-02T12:05:14.270Z,98468.16
2019-05-02T12:07:43.389Z,98455.37
2019-05-02T12:10:12.857Z,98453.67
2019-05-02T12:12:42.999Z,98456.81
2019-05-02T12:15:15.955Z,98455.84
2019-05-02T12:17:44.376Z,98450.56
2019-05-02T12:20:13.505Z,98461.73
2019-05-02T12:22:42.576Z,98456.71
2019-05-02T12:25:12.646Z,98454.37
2019-05-02T12:27:42.431Z,98441.39
2019-05-02T12:30:11.926Z,98447.51
2019-05-02T12:32:42.704Z,98449.33
2019-05-02T12:35:11.979Z,98451.56
2019-05-02T12:37:42.391Z,98444.81
2019-05-02T12:40:12.904Z,98448.97
2019-05-02T12:42:42.025Z,98448.05
2019-05-02T12:45:12.301Z,98443.06
2019-05-02T12:47:42.798Z,98449.95
2019-05-02T12:50:12.544Z,98437.98
2019-05-02T12:52:42.960Z,98444.84
2019-05-02T12:55:12.864Z,98444.54
2019-05-02T12:57:42.855Z,98438.45
2019-05-02T13:00:13.815Z,98433.77
2019-05-02T13:02:52.416Z,98430.05
2019-05-02T13:05:22.245Z,98429.71
2019-05-02T13:07:55.369Z,98429.11
2019-05-02T13:10:23.767Z,98428.06
2019-05-02T13:12:53.244Z,98431.34
2019-05-02T13:15:22.412Z,98422.64
2019-05-02T13:17:52.105Z,98422.22
2019-05-02T13:20:24.747Z,98419.88
2019-05-02T13:23:03.300Z,98417.16
2019-05-02T13:25:36.755Z,98421.28
2019-05-02T13:28:02.935Z,98413.38
2019-05-02T13:30:42.686Z,98413.06
2019-05-02T13:33:06.217Z,98414.69
2019-05-02T13:35:42.940Z,98416.90
2019-05-02T13:38:12.986Z,98416.74
2019-05-02T13:40:43.817Z,98420.95
2019-05-02T13:43:13.140Z,98422.89
2019-05-02T13:45:44.535Z,98426.61
2019-05-02T13:48:13.695Z,98411.53
2019-05-02T13:50:42.820Z,98423.74
2019-05-02T13:53:12.230Z,98410.84
2019-05-02T13:55:45.532Z,98420.77
2019-05-02T13:58:14.774Z,98403.03
2019-05-02T14:00:47.158Z,98410.14
2019-05-02T14:03:16.271Z,98409.02
2019-05-02T14:05:50.779Z,98403.66
2019-05-02T14:08:27.505Z,98406.90
2019-05-02T14:10:57.512Z,98407.40
2019-05-02T14:13:26.464Z,98408.81
2019-05-02T14:15:55.350Z,98407.59
2019-05-02T14:18:29.222Z,98409.08
2019-05-02T14:20:54.992Z,98401.45
2019-05-02T14:23:23.894Z,98402.20
2019-05-02T14:25:52.802Z,98397.41
2019-05-02T14:28:22.457Z,98391.39
2019-05-02T14:30:52.518Z,98396.03
2019-05-02T14:33:25.950Z,98390.24
2019-05-02T14:35:54.834Z,98390.08
2019-05-02T14:38:23.701Z,98397.04
2019-05-02T14:40:57.282Z,98389.27
2019-05-02T14:43:46.861Z,98387.89
2019-05-02T14:46:17.879Z,98391.43
2019-05-02T14:48:46.639Z,98395.26
2019-05-02T14:51:21.344Z,98396.02
2019-05-02T14:53:47.259Z,98391.87
2019-05-02T14:56:37.719Z,98392.39
2019-05-02T14:59:09.269Z,98394.42
2019-05-02T15:01:37.884Z,98400.81
2019-05-02T15:04:08.394Z,98399.06
2019-05-02T15:06:38.304Z,98399.44
2019-05-02T15:09:09.232Z,98395.72
2019-05-02T15:11:42.628Z,98393.89
2019-05-02T15:14:11.351Z,98396.02
2019-05-02T15:16:44.674Z,98394.92
2019-05-02T15:19:12.647Z,98388.53
2019-05-02T15:21:47.016Z,98396.61
2019-05-02T15:24:15.233Z,98389.78
2019-05-02T15:26:44.272Z,98387.19
2019-05-02T15:29:19.984Z,98389.81
2019-05-02T15:31:45.394Z,98390.75
2019-05-02T15:34:19.090Z,98385.11
2019-05-02T15:36:47.974Z,98387.45
2019-05-02T15:41:48.719Z,98393.84
2019-05-02T15:44:18.952Z,98389.17
2019-05-02T15:46:48.372Z,98384.45
2019-05-02T15:49:17.352Z,98389.92
2019-05-02T15:51:49.791Z,98390.56
2019-05-02T15:54:18.803Z,98395.00
2019-05-02T15:57:03.000Z,98390.39
2019-05-02T15:59:32.672Z,98389.72
2019-05-02T16:02:06.831Z,98397.31
2019-05-02T16:04:37.598Z,98396.80
2019-05-02T16:07:08.350Z,98390.21
2019-05-02T16:09:37.372Z,98397.56
2019-05-02T16:12:06.840Z,98386.92
2019-05-02T16:14:36.243Z,98397.03
2019-05-02T16:17:05.413Z,98390.97
2019-05-02T16:19:36.052Z,98395.02
2019-05-02T16:22:08.052Z,98398.38
2019-05-02T16:24:37.192Z,98408.77
2019-05-02T16:27:06.173Z,98393.72
2019-05-02T16:29:35.210Z,98400.46
2019-05-02T16:32:08.712Z,98392.58
2019-05-02T16:34:55.511Z,98401.07
2019-05-02T16:37:25.371Z,98396.42
2019-05-02T16:39:54.312Z,98400.66
2019-05-02T16:42:23.172Z,98398.58
2019-05-02T16:44:54.599Z,98390.46
2019-05-02T16:47:22.771Z,98393.75
2019-05-02T16:49:53.305Z,98397.53
2019-05-02T16:52:22.432Z,98401.00
2019-05-02T16:54:52.691Z,98394.09
2019-05-02T16:57:22.512Z,98396.78
2019-05-02T16:59:55.874Z,98390.91
2019-05-02T17:02:23.172Z,98396.75
2019-05-02T17:04:54.688Z,98398.66
2019-05-02T17:07:24.411Z,98398.42
2019-05-02T17:10:02.616Z,98398.14
2019-05-02T17:12:31.819Z,98401.91
2019-05-02T17:15:18.691Z,98405.26
2019-05-02T17:17:47.737Z,98410.94
2019-05-02T17:20:16.856Z,98406.11
2019-05-02T17:22:50.158Z,98408.24
2019-05-02T17:25:16.592Z,98407.52
2019-05-02T17:27:45.470Z,98414.35
2019-05-02T17:30:15.352Z,98420.80
2019-05-02T17:32:44.372Z,98418.97
2019-05-02T17:35:14.611Z,98417.47
2019-05-02T17:37:48.584Z,98420.72
2019-05-02T17:40:16.914Z,98421.91
2019-05-02T17:42:45.532Z,98423.48
2019-05-02T17:45:15.052Z,98422.64
2019-05-02T17:47:44.141Z,98415.64
2019-05-02T17:50:22.095Z,98421.77
2019-05-02T17:53:03.062Z,98425.78
2019-05-02T17:55:40.118Z,98424.82
2019-05-02T17:58:04.651Z,98429.61
2019-05-02T18:00:35.751Z,98422.81
2019-05-02T18:03:05.252Z,98426.27
2019-05-02T18:05:35.791Z,98427.62
2019-05-02T18:08:05.988Z,98428.25
2019-05-02T18:10:36.391Z,98428.22
2019-05-02T18:13:06.035Z,98428.03
2019-05-02T18:15:36.295Z,98430.30
2019-05-02T18:18:07.840Z,98431.30
2019-05-02T18:20:37.152Z,98432.02
2019-05-02T18:23:07.774Z,98437.76
2019-05-02T18:25:36.910Z,98443.35
2019-05-02T18:28:06.053Z,98441.81
2019-05-02T18:30:35.340Z,98450.66
2019-05-02T18:33:07.164Z,98459.16
2019-05-02T18:35:37.331Z,98454.18
2019-05-02T18:38:06.752Z,98463.03
2019-05-02T18:40:36.071Z,98459.02
2019-05-02T18:43:05.546Z,98463.61
2019-05-02T18:45:34.910Z,98466.56
2019-05-02T18:48:06.655Z,98472.11
2019-05-02T18:50:44.298Z,98467.95
2019-05-02T18:53:10.940Z,98477.43
2019-05-02T18:55:42.192Z,98471.14
2019-05-02T18:58:12.870Z,98474.77
2019-05-02T19:00:42.457Z,98476.32
2019-05-02T19:03:16.844Z,98476.32
2019-05-02T19:05:43.133Z,98482.89
2019-05-02T19:08:12.534Z,98487.09
2019-05-02T19:10:55.841Z,98490.77
2019-05-02T19:13:12.973Z,98486.70
2019-05-02T19:15:45.188Z,98484.98
2019-05-02T19:18:18.080Z,98493.61
2019-05-02T19:20:57.792Z,98492.23
2019-05-02T19:23:26.958Z,98507.05
2019-05-02T19:25:56.270Z,98503.51
2019-05-02T19:28:36.808Z,98492.46
2019-05-02T19:31:06.832Z,98493.30
2019-05-02T19:33:37.382Z,98491.33
2019-05-02T19:36:06.313Z,98494.27
2019-05-02T19:38:35.632Z,98485.66
2019-05-02T19:41:08.732Z,98488.55
2019-05-02T19:43:40.420Z,98486.55
2019-05-02T19:46:06.971Z,98483.92
2019-05-02T19:48:37.990Z,98494.19
2019-05-02T19:51:10.629Z,98487.27
2019-05-02T19:53:38.192Z,98491.36
2019-05-02T19:56:07.712Z,98485.08
2019-05-02T19:58:42.595Z,98487.50
2019-05-02T20:01:08.124Z,98489.98
2019-05-02T20:03:37.370Z,98482.48
2019-05-02T20:06:07.411Z,98486.91
2019-05-02T20:08:36.711Z,98478.48
2019-05-02T20:11:05.994Z,98483.41
2019-05-02T20:13:35.350Z,98485.40
2019-05-02T20:16:09.150Z,98485.00
2019-05-02T20:18:43.801Z,98478.19
2019-05-02T20:21:12.176Z,98481.33
2019-05-02T20:23:43.287Z,98485.84
2019-05-02T20:26:15.210Z,98488.50
2019-05-02T20:28:43.470Z,98489.06
2019-05-02T20:31:12.640Z,98493.12
2019-05-02T20:33:43.051Z,98499.66
2019-05-02T20:36:12.566Z,98493.88
2019-05-02T20:38:41.931Z,98493.34
2019-05-02T20:41:12.755Z,98487.83
2019-05-02T20:43:44.681Z,98496.34
2019-05-02T20:46:12.412Z,98488.59
2019-05-02T20:48:41.932Z,98489.44
2019-05-02T20:51:12.234Z,98494.25
2019-05-02T20:53:42.104Z,98491.53
2019-05-02T20:56:12.330Z,98490.59
2019-05-02T20:58:42.083Z,98497.20
2019-05-02T21:01:12.353Z,98491.31
2019-05-02T21:03:42.728Z,98495.67
2019-05-02T21:06:13.712Z,98490.73
2019-05-02T21:08:44.434Z,98489.39
2019-05-02T21:11:13.992Z,98497.70
2019-05-02T21:13:42.932Z,98490.84
2019-05-02T21:16:12.432Z,98501.13
2019-05-02T21:18:42.271Z,98499.73
2019-05-02T21:21:12.630Z,98500.48
2019-05-02T21:23:47.379Z,98492.77
2019-05-02T21:26:12.550Z,98497.12
2019-05-02T21:28:42.834Z,98500.37
2019-05-02T21:31:12.214Z,98495.09
2019-05-02T21:33:42.767Z,98494.42
2019-05-02T21:36:12.179Z,98496.22
2019-05-02T21:38:42.767Z,98494.36
2019-05-02T21:41:12.373Z,98492.29
2019-05-02T21:43:42.477Z,98494.45
2019-05-02T21:46:11.733Z,98494.39
2019-05-02T21:48:42.034Z,98491.95
2019-05-02T21:51:18.412Z,98495.81
2019-05-02T21:53:56.073Z,98492.59
2019-05-02T21:56:26.613Z,98486.13
2019-05-02T21:59:09.131Z,98482.73
2019-05-02T22:01:42.871Z,98482.73
2019-05-02T22:04:13.080Z,98484.50
2019-05-02T22:06:42.805Z,98484.06
2019-05-02T22:09:12.481Z,98484.74
2019-05-02T22:11:42.870Z,98484.59
2019-05-02T22:14:13.260Z,98485.39
2019-05-02T22:16:42.714Z,98489.52
2019-05-02T22:19:11.667Z,98492.32
2019-05-02T22:21:42.885Z,98498.33
2019-05-02T22:24:13.894Z,98488.50
2019-05-02T22:26:43.620Z,98489.83
2019-05-02T22:29:12.610Z,98487.20
2019-05-02T22:31:43.059Z,98495.05
2019-05-02T22:34:12.831Z,98485.60
2019-05-02T22:36:42.553Z,98493.46
2019-05-02T22:39:22.552Z,98492.72
2019-05-02T22:41:52.616Z,98490.13
2019-05-02T22:44:21.994Z,98488.43
2019-05-02T22:46:52.092Z,98490.02
2019-05-02T22:49:22.525Z,98486.03
2019-05-02T22:51:51.658Z,98482.23
2019-05-02T22:54:29.596Z,98481.65
2019-05-02T22:56:52.114Z,98479.92
2019-05-02T22:59:23.640Z,98478.33
2019-05-02T23:01:52.751Z,98476.01
2019-05-02T23:04:23.588Z,98461.49
2019-05-02T23:06:53.092Z,98469.24
2019-05-02T23:09:22.192Z,98477.80
2019-05-02T23:11:51.846Z,98473.20
2019-05-02T23:14:22.151Z,98473.61
2019-05-02T23:16:52.804Z,98476.68
2019-05-02T23:19:23.042Z,98480.32
2019-05-02T23:21:52.643Z,98472.98
2019-05-02T23:24:35.899Z,98463.49
2019-05-02T23:26:58.652Z,98456.70
2019-05-02T23:29:27.573Z,98459.64
2019-05-02T23:31:56.624Z,98450.98
2019-05-02T23:34:25.574Z,98451.45
2019-05-02T23:36:54.610Z,98453.89
2019-05-02T23:39:23.461Z,98447.39
2019-05-02T23:41:52.527Z,98444.20
2019-05-02T23:44:22.861Z,98445.16
2019-05-02T23:46:51.899Z,98443.45
2019-05-02T23:49:22.031Z,98438.05
2019-05-02T23:51:51.150Z,98446.87
2019-05-02T23:54:21.906Z,98444.87
2019-05-02T23:56:50.813Z,98446.80
2019-05-02T23:59:19.792Z,98439.62
